createdAt,value
2022-08-22T00:01:24.702Z,14.10
2022-08-22T00:02:58.170Z,16.80
2022-08-22T00:03:09.129Z,19.20
2022-08-22T00:03:09.129Z,18.70
2022-08-22T00:04:03.787Z,14.00
2022-08-22T00:06:30.882Z,14.00
2022-08-22T00:09:16.520Z,13.90
2022-08-22T00:11:52.606Z,14.00
2022-08-22T00:14:37.353Z,14.10
2022-08-22T00:17:36.244Z,14.00
2022-08-22T00:20:07.253Z,14.00
2022-08-22T00:22:40.822Z,13.90
2022-08-22T00:25:31.832Z,14.00
2022-08-22T00:28:13.784Z,14.00
2022-08-22T00:30:50.949Z,14.10
2022-08-22T00:33:28.040Z,14.30
2022-08-22T00:36:07.349Z,14.40
2022-08-22T00:38:40.808Z,14.30
2022-08-22T00:41:42.149Z,14.20
2022-08-22T00:44:09.015Z,14.00
2022-08-22T00:47:10.256Z,13.90
2022-08-22T00:50:12.713Z,13.80
2022-08-22T00:53:04.234Z,13.80
2022-08-22T00:55:52.696Z,13.70
2022-08-22T00:58:44.631Z,13.70
2022-08-22T01:01:14.194Z,13.70
2022-08-22T01:03:43.896Z,13.70
2022-08-22T01:06:29.943Z,13.70
2022-08-22T01:09:05.383Z,13.70
2022-08-22T01:11:50.456Z,13.70
2022-08-22T01:14:20.128Z,13.70
2022-08-22T01:17:49.295Z,13.70
2022-08-22T01:20:43.516Z,13.70
2022-08-22T01:23:42.770Z,14.00
2022-08-22T01:26:33.649Z,14.20
2022-08-22T01:29:28.470Z,14.20
2022-08-22T01:32:45.357Z,14.10
2022-08-22T01:35:14.905Z,14.10
2022-08-22T01:37:55.131Z,14.00
2022-08-22T01:40:53.508Z,14.00
2022-08-22T01:44:00.437Z,14.00
2022-08-22T01:46:33.815Z,13.90
2022-08-22T01:49:28.201Z,13.90
2022-08-22T01:52:19.620Z,13.80
2022-08-22T01:55:06.664Z,13.80
2022-08-22T01:57:53.222Z,13.80
2022-08-22T02:00:35.043Z,13.70
2022-08-22T02:03:12.045Z,13.70
2022-08-22T02:05:49.979Z,13.70
2022-08-22T02:08:37.794Z,13.70
2022-08-22T02:11:11.859Z,13.60
2022-08-22T02:14:00.099Z,13.60
2022-08-22T02:16:43.440Z,13.60
2022-08-22T02:19:10.191Z,13.70
2022-08-22T02:21:40.614Z,13.80
2022-08-22T02:24:34.048Z,13.70
2022-08-22T02:27:33.474Z,13.70
2022-08-22T02:30:06.347Z,13.60
2022-08-22T02:32:42.294Z,13.60
2022-08-22T02:35:36.913Z,13.50
2022-08-22T02:38:31.061Z,13.30
2022-08-22T02:41:14.397Z,13.20
2022-08-22T02:43:53.400Z,13.20
2022-08-22T02:46:31.381Z,13.20
2022-08-22T02:49:34.447Z,13.10
2022-08-22T02:52:26.265Z,13.10
2022-08-22T02:55:28.346Z,13.10
2022-08-22T02:58:08.621Z,13.10
2022-08-22T03:00:52.466Z,13.20
2022-08-22T03:03:24.673Z,13.10
2022-08-22T03:06:01.013Z,13.00
2022-08-22T03:08:42.914Z,13.10
2022-08-22T03:11:23.654Z,12.90
2022-08-22T03:14:05.769Z,12.80
2022-08-22T03:16:45.803Z,12.70
2022-08-22T03:19:19.566Z,12.60
2022-08-22T03:22:01.557Z,12.50
2022-08-22T03:24:50.969Z,12.40
2022-08-22T03:27:35.122Z,12.40
2022-08-22T03:30:27.648Z,12.60
2022-08-22T03:33:13.645Z,12.60
2022-08-22T03:35:46.513Z,12.60
2022-08-22T03:38:29.521Z,12.60
2022-08-22T03:41:38.224Z,12.50
2022-08-22T03:44:21.176Z,12.40
2022-08-22T03:47:06.994Z,12.30
2022-08-22T03:50:07.695Z,12.40
2022-08-22T03:53:19.309Z,12.30
2022-08-22T03:56:23.700Z,12.30
2022-08-22T03:59:09.915Z,12.10
2022-08-22T04:02:24.642Z,12.10
2022-08-22T04:05:16.538Z,12.10
2022-08-22T04:08:08.008Z,12.20
2022-08-22T04:11:15.686Z,12.30
2022-08-22T04:14:10.459Z,12.20
2022-08-22T04:17:14.712Z,12.10
2022-08-22T04:19:56.796Z,12.00
2022-08-22T04:22:39.279Z,11.90
2022-08-22T04:25:12.290Z,11.80
2022-08-22T04:27:51.177Z,11.80
2022-08-22T04:30:42.693Z,11.70
2022-08-22T04:33:17.648Z,11.80
2022-08-22T04:35:59.652Z,11.80
2022-08-22T04:38:48.730Z,12.00
2022-08-22T04:41:48.777Z,12.10
2022-08-22T04:44:38.377Z,12.20
2022-08-22T04:47:17.164Z,12.20
2022-08-22T04:49:56.405Z,12.20
2022-08-22T04:52:53.320Z,12.20
2022-08-22T04:55:35.437Z,12.40
2022-08-22T04:58:19.576Z,12.30
2022-08-22T05:01:04.110Z,12.30
2022-08-22T05:03:35.589Z,12.50
2022-08-22T05:06:05.157Z,12.70
2022-08-22T05:08:37.124Z,12.80
2022-08-22T05:11:09.372Z,13.00
2022-08-22T05:13:46.677Z,13.10
2022-08-22T05:16:23.329Z,13.10
2022-08-22T05:19:00.501Z,13.20
2022-08-22T05:21:32.376Z,13.30
2022-08-22T05:24:11.651Z,13.40
2022-08-22T05:26:44.833Z,13.60
2022-08-22T05:29:14.148Z,14.50
2022-08-22T05:31:48.227Z,16.60
2022-08-22T05:34:19.671Z,18.40
2022-08-22T05:36:55.435Z,19.50
2022-08-22T05:39:25.556Z,20.70
2022-08-22T05:42:00.281Z,22.30
2022-08-22T05:44:37.591Z,23.30
2022-08-22T05:47:12.824Z,23.10
2022-08-22T05:49:57.956Z,24.00
2022-08-22T05:53:01.632Z,24.40
2022-08-22T05:55:57.787Z,25.50
2022-08-22T05:58:41.466Z,26.20
2022-08-22T06:01:30.141Z,25.70
2022-08-22T06:04:04.369Z,24.90
2022-08-22T06:06:35.016Z,25.00
2022-08-22T06:09:05.984Z,25.40
2022-08-22T06:11:38.910Z,26.20
2022-08-22T06:14:28.374Z,26.40
2022-08-22T06:17:10.466Z,27.20
2022-08-22T06:19:42.687Z,27.20
2022-08-22T06:22:10.266Z,27.50
2022-08-22T06:24:47.807Z,27.90
2022-08-22T06:27:19.439Z,28.40
2022-08-22T06:29:50.948Z,28.50
2022-08-22T06:32:44.398Z,28.70
2022-08-22T06:35:22.094Z,29.00
2022-08-22T06:37:50.406Z,29.60
2022-08-22T06:40:18.491Z,29.80
2022-08-22T06:42:50.096Z,30.10
2022-08-22T06:45:16.976Z,30.30
2022-08-22T06:47:53.923Z,30.90
2022-08-22T06:50:32.456Z,31.10
2022-08-22T06:53:26.021Z,31.50
2022-08-22T06:55:56.481Z,31.30
2022-08-22T06:58:30.856Z,31.40
2022-08-22T07:01:13.585Z,31.90
2022-08-22T07:03:57.461Z,32.20
2022-08-22T07:06:50.328Z,32.50
2022-08-22T07:09:25.835Z,31.00
2022-08-22T07:11:55.077Z,31.00
2022-08-22T07:14:39.562Z,31.60
2022-08-22T07:17:10.822Z,32.80
2022-08-22T07:19:45.350Z,33.20
2022-08-22T07:22:22.530Z,33.20
2022-08-22T07:25:11.494Z,33.10
2022-08-22T07:27:57.261Z,32.90
2022-08-22T07:30:34.500Z,31.50
2022-08-22T07:33:25.968Z,31.10
2022-08-22T07:36:05.916Z,29.90
2022-08-22T07:38:47.229Z,28.60
2022-08-22T07:41:22.571Z,28.20
2022-08-22T07:44:00.970Z,27.70
2022-08-22T07:46:35.476Z,29.10
2022-08-22T07:49:21.970Z,30.00
2022-08-22T07:52:04.715Z,31.30
2022-08-22T07:54:58.012Z,32.00
2022-08-22T07:57:39.596Z,31.70
2022-08-22T08:00:16.950Z,32.20
2022-08-22T08:02:49.562Z,31.30
2022-08-22T08:05:17.638Z,31.20
2022-08-22T08:07:46.356Z,30.80
2022-08-22T08:10:18.838Z,32.20
2022-08-22T08:13:01.654Z,31.70
2022-08-22T08:15:31.914Z,32.70
2022-08-22T08:18:05.558Z,33.30
2022-08-22T08:20:36.241Z,33.60
2022-08-22T08:23:06.903Z,32.80
2022-08-22T08:25:57.890Z,31.70
2022-08-22T08:28:34.574Z,31.30
2022-08-22T08:31:25.134Z,30.90
2022-08-22T08:33:59.962Z,30.80
2022-08-22T08:36:38.929Z,31.80
2022-08-22T08:39:34.992Z,30.40
2022-08-22T08:42:31.742Z,31.20
2022-08-22T08:45:23.669Z,32.30
2022-08-22T08:48:03.287Z,32.70
2022-08-22T08:51:01.933Z,32.20
2022-08-22T08:53:43.573Z,31.90
2022-08-22T08:56:34.057Z,31.40
2022-08-22T08:59:10.052Z,32.90
2022-08-22T09:02:23.460Z,33.60
2022-08-22T09:05:26.071Z,32.70
2022-08-22T09:07:53.029Z,32.70
2022-08-22T09:10:35.124Z,32.80
2022-08-22T09:13:12.566Z,32.80
2022-08-22T09:16:10.743Z,32.50
2022-08-22T09:18:51.195Z,31.30
2022-08-22T09:22:05.700Z,31.80
2022-08-22T09:25:00.306Z,32.70
2022-08-22T09:27:30.137Z,33.50
2022-08-22T09:30:15.657Z,33.80
2022-08-22T09:33:04.326Z,34.60
2022-08-22T09:36:05.353Z,33.40
2022-08-22T09:38:55.793Z,33.80
2022-08-22T09:41:32.083Z,33.70
2022-08-22T09:44:19.553Z,32.60
2022-08-22T09:46:53.012Z,29.90
2022-08-22T09:49:46.636Z,29.40
2022-08-22T09:52:51.907Z,29.90
2022-08-22T09:55:35.243Z,30.50
2022-08-22T09:58:15.868Z,28.80
2022-08-22T10:00:47.655Z,26.60
2022-08-22T10:03:45.201Z,27.50
2022-08-22T10:06:30.725Z,29.50
2022-08-22T10:09:08.983Z,29.90
2022-08-22T10:12:12.428Z,30.30
2022-08-22T10:14:52.162Z,29.80
2022-08-22T10:17:36.558Z,30.20
2022-08-22T10:20:44.751Z,29.20
2022-08-22T10:23:24.024Z,30.50
2022-08-22T10:26:00.629Z,31.00
2022-08-22T10:28:55.144Z,30.90
2022-08-22T10:31:45.060Z,31.00
2022-08-22T10:34:36.476Z,31.30
2022-08-22T10:37:25.295Z,30.50
2022-08-22T10:40:05.161Z,30.80
2022-08-22T10:42:48.311Z,30.70
2022-08-22T10:45:36.872Z,31.70
2022-08-22T10:48:30.681Z,32.40
2022-08-22T10:51:17.164Z,33.30
2022-08-22T10:53:56.010Z,32.90
2022-08-22T10:56:38.819Z,31.60
2022-08-22T10:59:39.358Z,30.30
2022-08-22T11:02:44.926Z,28.30
2022-08-22T11:05:13.959Z,29.50
2022-08-22T11:07:48.716Z,29.80
2022-08-22T11:10:35.652Z,30.30
2022-08-22T11:13:16.550Z,30.10
2022-08-22T11:15:52.478Z,31.10
2022-08-22T11:19:02.461Z,32.20
2022-08-22T11:21:55.844Z,33.00
2022-08-22T11:24:55.675Z,30.70
2022-08-22T11:27:37.863Z,30.30
2022-08-22T11:30:06.733Z,30.60
2022-08-22T11:32:33.735Z,29.90
2022-08-22T11:35:11.873Z,29.30
2022-08-22T11:38:11.095Z,29.90
2022-08-22T11:41:05.539Z,30.80
2022-08-22T11:43:39.406Z,31.10
2022-08-22T11:46:41.046Z,30.70
2022-08-22T11:49:28.191Z,31.00
2022-08-22T11:52:04.020Z,29.60
2022-08-22T11:54:59.122Z,28.70
2022-08-22T11:57:44.368Z,28.30
2022-08-22T12:00:25.420Z,29.10
2022-08-22T12:03:12.644Z,28.90
2022-08-22T12:05:48.382Z,29.10
2022-08-22T12:08:29.174Z,29.30
2022-08-22T12:11:04.708Z,29.50
2022-08-22T12:13:46.025Z,29.10
2022-08-22T12:16:22.146Z,28.50
2022-08-22T12:19:12.241Z,29.10
2022-08-22T12:22:05.738Z,29.50
2022-08-22T12:24:43.264Z,30.30
2022-08-22T12:27:31.678Z,29.60
2022-08-22T12:30:27.723Z,30.30
2022-08-22T12:33:14.821Z,30.60
2022-08-22T12:35:56.372Z,28.80
2022-08-22T12:39:00.934Z,28.10
2022-08-22T12:41:40.141Z,28.60
2022-08-22T12:44:42.927Z,27.30
2022-08-22T12:47:28.291Z,28.50
2022-08-22T12:50:50.822Z,28.70
2022-08-22T12:53:42.429Z,28.40
2022-08-22T12:56:47.216Z,28.80
2022-08-22T12:59:31.429Z,29.20
2022-08-22T13:02:12.637Z,29.00
2022-08-22T13:04:52.445Z,28.70
2022-08-22T13:07:23.151Z,28.90
2022-08-22T13:10:08.146Z,28.70
2022-08-22T13:12:47.136Z,28.30
2022-08-22T13:15:25.973Z,28.90
2022-08-22T13:17:55.036Z,29.10
2022-08-22T13:20:35.956Z,29.70
2022-08-22T13:23:14.105Z,30.10
2022-08-22T13:26:02.240Z,29.90
2022-08-22T13:28:32.609Z,30.20
2022-08-22T13:31:01.659Z,30.10
2022-08-22T13:33:34.966Z,30.30
2022-08-22T13:36:08.299Z,29.00
2022-08-22T13:38:48.729Z,28.90
2022-08-22T13:41:27.767Z,28.70
2022-08-22T13:44:07.140Z,29.30
2022-08-22T13:46:37.430Z,30.00
2022-08-22T13:49:17.234Z,30.60
2022-08-22T13:51:53.200Z,30.90
2022-08-22T13:54:40.189Z,30.00
2022-08-22T13:57:11.312Z,29.40
2022-08-22T13:59:50.842Z,29.10
2022-08-22T14:02:43.232Z,28.80
2022-08-22T14:05:33.932Z,28.50
2022-08-22T14:08:13.304Z,28.60
2022-08-22T14:10:52.234Z,28.10
2022-08-22T14:13:41.304Z,28.20
2022-08-22T14:16:25.993Z,27.60
2022-08-22T14:19:06.825Z,26.80
2022-08-22T14:21:40.595Z,26.20
2022-08-22T14:24:14.000Z,26.80
2022-08-22T14:27:09.608Z,27.70
2022-08-22T14:29:50.131Z,27.80
2022-08-22T14:32:26.727Z,28.20
2022-08-22T14:35:21.430Z,28.10
2022-08-22T14:37:56.875Z,28.20
2022-08-22T14:40:36.326Z,28.10
2022-08-22T14:43:50.417Z,28.00
2022-08-22T14:46:42.643Z,27.40
2022-08-22T14:49:10.664Z,27.50
2022-08-22T14:51:46.497Z,28.10
2022-08-22T14:54:21.365Z,28.40
2022-08-22T14:56:52.283Z,28.60
2022-08-22T14:59:33.342Z,28.80
2022-08-22T15:02:13.787Z,29.10
2022-08-22T15:04:47.964Z,28.50
2022-08-22T15:07:41.549Z,28.80
2022-08-22T15:10:22.319Z,28.80
2022-08-22T15:12:56.485Z,28.30
2022-08-22T15:15:31.554Z,28.10
2022-08-22T15:17:59.284Z,28.30
2022-08-22T15:20:38.357Z,28.20
2022-08-22T15:23:21.912Z,28.60
2022-08-22T15:26:03.829Z,28.60
2022-08-22T15:28:52.309Z,28.30
2022-08-22T15:31:22.138Z,28.50
2022-08-22T15:33:50.690Z,28.60
2022-08-22T15:36:24.858Z,28.40
2022-08-22T15:39:14.270Z,28.00
2022-08-22T15:41:45.063Z,28.10
2022-08-22T15:44:30.597Z,27.80
2022-08-22T15:47:04.697Z,27.90
2022-08-22T15:49:54.713Z,27.40
2022-08-22T15:52:28.526Z,26.40
2022-08-22T15:54:57.161Z,26.40
2022-08-22T15:57:32.056Z,26.10
2022-08-22T16:00:17.616Z,26.00
2022-08-22T16:03:11.633Z,26.20
2022-08-22T16:05:54.990Z,26.70
2022-08-22T16:08:44.245Z,26.40
2022-08-22T16:11:18.280Z,26.50
2022-08-22T16:13:46.267Z,26.10
2022-08-22T16:16:25.391Z,25.90
2022-08-22T16:18:52.328Z,25.50
2022-08-22T16:21:39.328Z,25.70
2022-08-22T16:24:06.398Z,25.80
2022-08-22T16:26:43.634Z,25.90
2022-08-22T16:29:14.727Z,25.50
2022-08-22T16:31:45.017Z,25.30
2022-08-22T16:34:17.964Z,24.90
2022-08-22T16:37:03.114Z,25.00
2022-08-22T16:39:36.262Z,24.90
2022-08-22T16:42:15.724Z,24.70
2022-08-22T16:44:47.393Z,24.60
2022-08-22T16:47:22.341Z,24.50
2022-08-22T16:49:51.961Z,24.40
2022-08-22T16:52:24.845Z,24.30
2022-08-22T16:55:02.812Z,24.20
2022-08-22T16:58:05.694Z,24.10
2022-08-22T17:00:36.697Z,24.00
2022-08-22T17:03:16.305Z,23.80
2022-08-22T17:06:01.173Z,23.60
2022-08-22T17:08:55.768Z,23.60
2022-08-22T17:11:32.110Z,23.50
2022-08-22T17:14:34.574Z,23.50
2022-08-22T17:17:16.657Z,23.40
2022-08-22T17:19:52.259Z,23.30
2022-08-22T17:22:29.192Z,23.20
2022-08-22T17:25:22.342Z,23.10
2022-08-22T17:28:12.242Z,23.00
2022-08-22T17:30:56.018Z,23.00
2022-08-22T17:33:41.249Z,23.00
2022-08-22T17:36:53.139Z,22.90
2022-08-22T17:39:49.256Z,22.80
2022-08-22T17:43:03.551Z,22.80
2022-08-22T17:45:48.978Z,22.70
2022-08-22T17:48:33.923Z,22.60
2022-08-22T17:51:11.188Z,22.50
2022-08-22T17:53:46.618Z,22.50
2022-08-22T17:56:43.854Z,22.40
2022-08-22T17:59:32.342Z,22.40
2022-08-22T18:02:13.736Z,22.30
2022-08-22T18:05:00.519Z,22.20
2022-08-22T18:07:34.663Z,22.10
2022-08-22T18:10:18.078Z,22.00
2022-08-22T18:13:07.583Z,22.00
2022-08-22T18:15:55.216Z,21.80
2022-08-22T18:18:37.379Z,21.70
2022-08-22T18:21:11.686Z,21.60
2022-08-22T18:23:49.572Z,21.50
2022-08-22T18:26:27.350Z,21.40
2022-08-22T18:29:13.391Z,21.50
2022-08-22T18:31:40.250Z,21.50
2022-08-22T18:34:21.048Z,21.30
2022-08-22T18:37:11.810Z,21.20
2022-08-22T18:40:23.140Z,21.10
2022-08-22T18:43:14.245Z,21.00
2022-08-22T18:45:46.863Z,20.90
2022-08-22T18:49:05.498Z,20.90
2022-08-22T18:51:38.274Z,20.70
2022-08-22T18:54:05.471Z,20.50
2022-08-22T18:56:59.612Z,20.40
2022-08-22T18:59:53.778Z,20.30
2022-08-22T19:02:40.135Z,20.20
2022-08-22T19:05:27.913Z,20.10
2022-08-22T19:08:11.192Z,20.20
2022-08-22T19:11:03.023Z,20.10
2022-08-22T19:13:54.066Z,20.30
2022-08-22T19:17:02.224Z,20.30
2022-08-22T19:20:15.349Z,20.40
2022-08-22T19:22:43.641Z,20.50
2022-08-22T19:25:18.353Z,20.50
2022-08-22T19:28:09.262Z,20.40
2022-08-22T19:30:41.715Z,20.30
2022-08-22T19:33:11.770Z,20.20
2022-08-22T19:35:40.155Z,20.10
2022-08-22T19:38:09.703Z,20.10
2022-08-22T19:40:45.424Z,20.10
2022-08-22T19:43:30.616Z,20.10
2022-08-22T19:45:59.809Z,20.20
2022-08-22T19:48:34.339Z,20.00
2022-08-22T19:51:28.430Z,20.00
2022-08-22T19:54:01.567Z,19.90
2022-08-22T19:56:37.226Z,19.90
2022-08-22T19:59:26.712Z,19.80
2022-08-22T20:02:19.499Z,19.70
2022-08-22T20:04:55.200Z,19.70
2022-08-22T20:07:43.572Z,19.70
2022-08-22T20:10:25.310Z,19.70
2022-08-22T20:13:07.605Z,19.70
2022-08-22T20:16:13.599Z,19.70
2022-08-22T20:19:05.913Z,19.70
2022-08-22T20:21:49.281Z,19.60
2022-08-22T20:24:39.574Z,19.50
2022-08-22T20:27:17.579Z,19.40
2022-08-22T20:29:50.103Z,19.40
2022-08-22T20:32:21.207Z,19.40
2022-08-22T20:34:54.634Z,19.40
2022-08-22T20:37:40.129Z,19.40
2022-08-22T20:40:54.596Z,19.50
2022-08-22T20:43:28.393Z,19.50
2022-08-22T20:46:24.303Z,19.50
2022-08-22T20:48:54.493Z,19.50
2022-08-22T20:51:25.117Z,19.40
2022-08-22T20:53:57.499Z,19.40
2022-08-22T20:56:53.442Z,19.30
2022-08-22T20:59:41.839Z,19.00
2022-08-22T21:02:21.757Z,19.00
2022-08-22T21:05:01.967Z,19.00
2022-08-22T21:07:42.895Z,18.80
2022-08-22T21:10:44.695Z,18.70
2022-08-22T21:13:16.834Z,18.70
2022-08-22T21:15:47.682Z,18.60
2022-08-22T21:18:28.773Z,18.40
2022-08-22T21:21:12.744Z,18.30
2022-08-22T21:23:48.197Z,18.30
2022-08-22T21:26:30.003Z,18.20
2022-08-22T21:29:07.706Z,18.30
2022-08-22T21:32:04.314Z,18.30
2022-08-22T21:34:42.943Z,18.40
2022-08-22T21:37:22.893Z,18.40
2022-08-22T21:39:53.408Z,18.40
2022-08-22T21:42:27.317Z,18.40
2022-08-22T21:45:08.353Z,18.30
2022-08-22T21:47:48.815Z,18.20
2022-08-22T21:50:20.741Z,18.10
2022-08-22T21:52:56.494Z,18.00
2022-08-22T21:55:31.835Z,18.00
2022-08-22T21:58:06.169Z,18.00
2022-08-22T22:00:54.468Z,17.80
2022-08-22T22:03:36.368Z,17.70
2022-08-22T22:06:06.134Z,17.60
2022-08-22T22:08:33.623Z,17.60
2022-08-22T22:11:06.168Z,17.60
2022-08-22T22:13:35.763Z,17.50
2022-08-22T22:16:03.041Z,17.60
2022-08-22T22:18:31.861Z,17.60
2022-08-22T22:20:59.753Z,17.60
2022-08-22T22:23:27.279Z,17.60
2022-08-22T22:25:57.038Z,17.60
2022-08-22T22:28:43.142Z,17.60
2022-08-22T22:31:10.196Z,17.40
2022-08-22T22:33:40.314Z,17.50
2022-08-22T22:36:11.156Z,17.50
2022-08-22T22:38:40.180Z,17.50
2022-08-22T22:41:07.095Z,17.30
2022-08-22T22:43:34.112Z,17.20
2022-08-22T22:46:01.026Z,17.20
2022-08-22T22:48:29.573Z,17.20
2022-08-22T22:50:56.475Z,17.10
2022-08-22T22:53:28.579Z,17.00
2022-08-22T22:56:07.472Z,17.00
2022-08-22T22:58:36.741Z,16.90
2022-08-22T23:01:10.004Z,16.80
2022-08-22T23:03:37.079Z,16.80
2022-08-22T23:06:04.274Z,16.90
2022-08-22T23:08:31.217Z,16.80
2022-08-22T23:10:58.305Z,16.80
2022-08-22T23:13:25.133Z,16.80
2022-08-22T23:15:52.080Z,16.80
2022-08-22T23:18:26.704Z,16.70
2022-08-22T23:20:57.859Z,16.70
2022-08-22T23:23:25.737Z,16.60
2022-08-22T23:25:52.535Z,16.70
2022-08-22T23:28:19.365Z,16.60
2022-08-22T23:30:46.195Z,16.60
2022-08-22T23:33:13.083Z,16.60
2022-08-22T23:35:39.964Z,16.40
2022-08-22T23:38:06.873Z,16.40
2022-08-22T23:40:33.745Z,16.40
2022-08-22T23:43:00.706Z,16.30
2022-08-22T23:45:27.582Z,16.30
2022-08-22T23:47:54.918Z,16.30
2022-08-22T23:50:21.951Z,16.40
2022-08-22T23:52:48.913Z,16.30
2022-08-22T23:55:16.311Z,16.30
2022-08-22T23:57:43.183Z,16.20
